Etusivu
METAR-TAF:

METAR-TAF

Lentoasemat :

Butte, Montana, Yhdysvallat

Leveyspiiri: 45-57-17N, Pituuspiiri: 112-29-51W, korkeus merenpinnasta: 1690 m

Tämänhetkinen sää

Tämä raportti tehtiin 22 minuuttia sitten, kello 14.53 UTC
tyyntä
Lämpötila 12°C
Kosteus 47%
Ilmanpaine 1026 hPa
Näkyvyys: 16.1 km
selkeää

METAR: KBTM 211453Z AUTO 00000KT 10SM CLR 12/01 A3031 RMK AO2 SLP223 T01170006 51007

Aika: 09:15 (15:15 UTC)

Sääennuste

Tämä raportti tehtiin 3 tuntia ja 55 minuuttia sitten, kello 11.20 UTC
Ennuste voimassa 21. päivästä klo 12 UTC - 22. päivään klo 12 UTC
Tuuli 5 kn kaakosta
Näkyvyys: 10 km
selkeää
From 21. päivästä klo 2100 UTC
Tuuli 10 kn etelästä/kaakosta
Näkyvyys: 10 km
selkeää
From 22. päivästä klo 0400 UTC
Tuuli 4 kn etelästä/kaakosta
Näkyvyys: 10 km
selkeää

TAF: KBTM 211120Z 2112/2212 14005KT P6SM SKC FM212100 15010KT P6SM SKC FM220400 15004KT P6SM SKC

Säähavainnot ja -ennusteet yli 4000 lentoasemalta (METAR- ja TAF-raportit).

Käytössä olevat sääasemat on merkitty karttaan keltaisilla ja punaisilla pisteillä.

Aseta hiiri pisteen päälle nähdäksesi sääaseman nimen.

Klikkaa sitten nähdäksesi säähavainnot ja -ennusteet.

Kartan vaihtaminen: klikkaa mustalla rastilla varustettuja vihreitä pisteitä, niin voit zoomata sisään; viivalla varustettua vihreää pistettä, niin voit zoomata ulos tai vihreitä nuolia, niin pääset viereisille kartoille.


METAR-TAF: